sensor_id;sensor_type;location;lat;lon;timestamp;P1;durP1;ratioP1;P2;durP2;ratioP2
1977;SDS011;989;53.016;8.346;2022-11-15T00:01:53;30.90;;;16.80;;
1977;SDS011;989;53.016;8.346;2022-11-15T00:04:19;34.83;;;16.33;;
1977;SDS011;989;53.016;8.346;2022-11-15T00:06:44;32.90;;;16.20;;
1977;SDS011;989;53.016;8.346;2022-11-15T00:09:10;28.77;;;16.63;;
1977;SDS011;989;53.016;8.346;2022-11-15T00:11:36;34.27;;;16.20;;
1977;SDS011;989;53.016;8.346;2022-11-15T00:14:01;34.67;;;14.40;;
1977;SDS011;989;53.016;8.346;2022-11-15T00:16:27;35.03;;;16.93;;
1977;SDS011;989;53.016;8.346;2022-11-15T00:18:53;32.10;;;16.47;;
1977;SDS011;989;53.016;8.346;2022-11-15T00:21:19;27.97;;;14.37;;
1977;SDS011;989;53.016;8.346;2022-11-15T00:23:44;33.70;;;16.40;;
1977;SDS011;989;53.016;8.346;2022-11-15T00:26:14;34.50;;;16.60;;
1977;SDS011;989;53.016;8.346;2022-11-15T00:28:40;34.50;;;16.77;;
1977;SDS011;989;53.016;8.346;2022-11-15T00:31:08;31.67;;;15.25;;
1977;SDS011;989;53.016;8.346;2022-11-15T00:33:37;35.72;;;15.90;;
1977;SDS011;989;53.016;8.346;2022-11-15T00:36:03;33.90;;;17.30;;
1977;SDS011;989;53.016;8.346;2022-11-15T00:38:37;33.25;;;15.75;;
1977;SDS011;989;53.016;8.346;2022-11-15T00:41:04;32.03;;;14.60;;
1977;SDS011;989;53.016;8.346;2022-11-15T00:43:32;28.13;;;15.43;;
1977;SDS011;989;53.016;8.346;2022-11-15T00:45:58;32.83;;;15.93;;
1977;SDS011;989;53.016;8.346;2022-11-15T00:48:24;37.00;;;16.40;;
1977;SDS011;989;53.016;8.346;2022-11-15T00:50:50;38.20;;;16.33;;
1977;SDS011;989;53.016;8.346;2022-11-15T00:53:16;45.83;;;17.80;;
1977;SDS011;989;53.016;8.346;2022-11-15T00:55:42;36.47;;;17.15;;
1977;SDS011;989;53.016;8.346;2022-11-15T00:58:08;35.93;;;17.87;;
1977;SDS011;989;53.016;8.346;2022-11-15T01:00:34;32.42;;;16.52;;
1977;SDS011;989;53.016;8.346;2022-11-15T01:03:00;29.83;;;16.57;;
1977;SDS011;989;53.016;8.346;2022-11-15T01:05:26;35.75;;;17.67;;
1977;SDS011;989;53.016;8.346;2022-11-15T01:07:56;30.75;;;15.90;;
1977;SDS011;989;53.016;8.346;2022-11-15T01:10:22;29.63;;;16.20;;
1977;SDS011;989;53.016;8.346;2022-11-15T01:12:48;35.42;;;17.38;;
1977;SDS011;989;53.016;8.346;2022-11-15T01:15:14;34.85;;;16.50;;
1977;SDS011;989;53.016;8.346;2022-11-15T01:17:40;30.83;;;15.53;;
1977;SDS011;989;53.016;8.346;2022-11-15T01:20:06;34.87;;;17.00;;
1977;SDS011;989;53.016;8.346;2022-11-15T01:22:32;43.63;;;17.05;;
1977;SDS011;989;53.016;8.346;2022-11-15T01:24:58;34.73;;;15.97;;
1977;SDS011;989;53.016;8.346;2022-11-15T01:27:24;41.93;;;16.30;;
1977;SDS011;989;53.016;8.346;2022-11-15T01:29:49;33.33;;;16.00;;
1977;SDS011;989;53.016;8.346;2022-11-15T01:32:15;44.13;;;17.33;;
1977;SDS011;989;53.016;8.346;2022-11-15T01:34:41;42.00;;;17.58;;
1977;SDS011;989;53.016;8.346;2022-11-15T01:37:07;45.70;;;19.17;;
1977;SDS011;989;53.016;8.346;2022-11-15T01:39:33;43.60;;;18.70;;
1977;SDS011;989;53.016;8.346;2022-11-15T01:41:58;42.40;;;19.40;;
1977;SDS011;989;53.016;8.346;2022-11-15T01:46:59;40.85;;;20.30;;
1977;SDS011;989;53.016;8.346;2022-11-15T01:49:29;43.45;;;20.92;;
1977;SDS011;989;53.016;8.346;2022-11-15T01:51:59;37.17;;;18.92;;
1977;SDS011;989;53.016;8.346;2022-11-15T01:54:28;44.20;;;20.48;;
1977;SDS011;989;53.016;8.346;2022-11-15T01:57:05;42.83;;;21.45;;
1977;SDS011;989;53.016;8.346;2022-11-15T01:59:35;40.72;;;19.38;;
1977;SDS011;989;53.016;8.346;2022-11-15T02:02:03;43.30;;;20.65;;
1977;SDS011;989;53.016;8.346;2022-11-15T02:04:30;46.57;;;20.27;;
1977;SDS011;989;53.016;8.346;2022-11-15T02:06:58;47.60;;;18.90;;
1977;SDS011;989;53.016;8.346;2022-11-15T02:09:29;38.03;;;19.63;;
1977;SDS011;989;53.016;8.346;2022-11-15T02:11:55;53.33;;;21.60;;
1977;SDS011;989;53.016;8.346;2022-11-15T02:14:21;42.83;;;20.88;;
1977;SDS011;989;53.016;8.346;2022-11-15T02:17:01;45.88;;;21.40;;
1977;SDS011;989;53.016;8.346;2022-11-15T02:39:34;37.63;;;17.38;;
1977;SDS011;989;53.016;8.346;2022-11-15T02:42:17;41.30;;;18.38;;
1977;SDS011;989;53.016;8.346;2022-11-15T02:45:09;36.60;;;18.92;;
1977;SDS011;989;53.016;8.346;2022-11-15T02:47:44;65.88;;;20.63;;
1977;SDS011;989;53.016;8.346;2022-11-15T02:50:13;40.80;;;19.73;;
1977;SDS011;989;53.016;8.346;2022-11-15T02:52:50;34.97;;;16.65;;
1977;SDS011;989;53.016;8.346;2022-11-15T02:55:36;35.13;;;18.70;;
1977;SDS011;989;53.016;8.346;2022-11-15T02:58:15;34.13;;;17.33;;
1977;SDS011;989;53.016;8.346;2022-11-15T03:04:32;35.83;;;16.70;;
1977;SDS011;989;53.016;8.346;2022-11-15T03:12:43;34.70;;;15.73;;
1977;SDS011;989;53.016;8.346;2022-11-15T03:15:38;34.20;;;15.57;;
1977;SDS011;989;53.016;8.346;2022-11-15T03:18:19;37.40;;;16.98;;
1977;SDS011;989;53.016;8.346;2022-11-15T03:20:53;37.33;;;17.07;;
1977;SDS011;989;53.016;8.346;2022-11-15T03:23:20;28.27;;;14.50;;
1977;SDS011;989;53.016;8.346;2022-11-15T03:25:47;32.40;;;15.23;;
1977;SDS011;989;53.016;8.346;2022-11-15T03:28:16;23.97;;;15.03;;
1977;SDS011;989;53.016;8.346;2022-11-15T03:30:50;28.77;;;13.95;;
1977;SDS011;989;53.016;8.346;2022-11-15T03:33:18;26.80;;;13.40;;
1977;SDS011;989;53.016;8.346;2022-11-15T03:35:46;24.60;;;14.87;;
1977;SDS011;989;53.016;8.346;2022-11-15T03:38:23;26.53;;;14.27;;
1977;SDS011;989;53.016;8.346;2022-11-15T03:40:57;30.00;;;14.50;;
1977;SDS011;989;53.016;8.346;2022-11-15T03:46:20;29.67;;;15.30;;
1977;SDS011;989;53.016;8.346;2022-11-15T03:49:03;32.27;;;14.60;;
1977;SDS011;989;53.016;8.346;2022-11-15T03:51:37;26.30;;;14.90;;
1977;SDS011;989;53.016;8.346;2022-11-15T03:54:05;28.70;;;13.93;;
1977;SDS011;989;53.016;8.346;2022-11-15T03:56:31;27.80;;;13.53;;
1977;SDS011;989;53.016;8.346;2022-11-15T03:58:57;28.57;;;14.70;;
1977;SDS011;989;53.016;8.346;2022-11-15T04:01:22;30.10;;;15.03;;
1977;SDS011;989;53.016;8.346;2022-11-15T04:03:48;29.60;;;12.90;;
1977;SDS011;989;53.016;8.346;2022-11-15T04:06:14;32.33;;;13.83;;
1977;SDS011;989;53.016;8.346;2022-11-15T04:08:39;24.73;;;14.10;;
1977;SDS011;989;53.016;8.346;2022-11-15T04:11:05;23.70;;;12.93;;
1977;SDS011;989;53.016;8.346;2022-11-15T04:13:31;29.63;;;12.20;;
1977;SDS011;989;53.016;8.346;2022-11-15T04:15:56;27.57;;;13.13;;
1977;SDS011;989;53.016;8.346;2022-11-15T04:18:22;24.33;;;12.13;;
1977;SDS011;989;53.016;8.346;2022-11-15T04:20:49;31.17;;;13.83;;
1977;SDS011;989;53.016;8.346;2022-11-15T04:23:33;25.20;;;13.10;;
1977;SDS011;989;53.016;8.346;2022-11-15T04:26:31;27.87;;;13.13;;
1977;SDS011;989;53.016;8.346;2022-11-15T04:28:57;25.47;;;14.93;;
1977;SDS011;989;53.016;8.346;2022-11-15T04:31:41;24.80;;;11.63;;
1977;SDS011;989;53.016;8.346;2022-11-15T04:34:07;33.60;;;13.50;;
1977;SDS011;989;53.016;8.346;2022-11-15T04:36:32;20.53;;;12.40;;
1977;SDS011;989;53.016;8.346;2022-11-15T04:39:17;22.70;;;10.77;;
1977;SDS011;989;53.016;8.346;2022-11-15T04:41:42;19.33;;;11.17;;
1977;SDS011;989;53.016;8.346;2022-11-15T04:44:08;21.27;;;11.27;;
1977;SDS011;989;53.016;8.346;2022-11-15T04:46:34;18.07;;;11.10;;
1977;SDS011;989;53.016;8.346;2022-11-15T04:49:00;21.63;;;10.50;;
1977;SDS011;989;53.016;8.346;2022-11-15T04:51:26;31.33;;;11.60;;
1977;SDS011;989;53.016;8.346;2022-11-15T04:53:52;25.70;;;11.00;;
1977;SDS011;989;53.016;8.346;2022-11-15T04:56:18;18.83;;;10.40;;
1977;SDS011;989;53.016;8.346;2022-11-15T04:58:44;29.50;;;12.10;;
1977;SDS011;989;53.016;8.346;2022-11-15T05:01:10;20.27;;;11.50;;
1977;SDS011;989;53.016;8.346;2022-11-15T05:03:39;23.00;;;10.97;;
1977;SDS011;989;53.016;8.346;2022-11-15T05:06:27;19.97;;;9.67;;
1977;SDS011;989;53.016;8.346;2022-11-15T05:08:53;16.40;;;10.07;;
1977;SDS011;989;53.016;8.346;2022-11-15T05:11:19;21.47;;;10.70;;
1977;SDS011;989;53.016;8.346;2022-11-15T05:13:45;17.23;;;9.97;;
1977;SDS011;989;53.016;8.346;2022-11-15T05:16:11;18.83;;;10.07;;
1977;SDS011;989;53.016;8.346;2022-11-15T05:18:37;20.60;;;9.63;;
1977;SDS011;989;53.016;8.346;2022-11-15T05:21:10;19.13;;;9.27;;
1977;SDS011;989;53.016;8.346;2022-11-15T05:23:38;15.13;;;9.43;;
1977;SDS011;989;53.016;8.346;2022-11-15T05:26:05;13.70;;;9.37;;
1977;SDS011;989;53.016;8.346;2022-11-15T05:28:32;20.33;;;9.73;;
1977;SDS011;989;53.016;8.346;2022-11-15T05:31:02;19.80;;;9.07;;
1977;SDS011;989;53.016;8.346;2022-11-15T05:33:36;17.13;;;9.60;;
1977;SDS011;989;53.016;8.346;2022-11-15T05:36:07;16.37;;;10.33;;
1977;SDS011;989;53.016;8.346;2022-11-15T05:38:44;22.87;;;10.27;;
1977;SDS011;989;53.016;8.346;2022-11-15T05:41:11;15.73;;;8.27;;
1977;SDS011;989;53.016;8.346;2022-11-15T05:43:38;22.00;;;9.50;;
1977;SDS011;989;53.016;8.346;2022-11-15T05:46:05;19.90;;;9.93;;
1977;SDS011;989;53.016;8.346;2022-11-15T05:48:31;18.47;;;9.60;;
1977;SDS011;989;53.016;8.346;2022-11-15T05:50:59;20.50;;;9.33;;
1977;SDS011;989;53.016;8.346;2022-11-15T05:53:25;16.90;;;10.10;;
1977;SDS011;989;53.016;8.346;2022-11-15T05:55:51;18.77;;;9.90;;
1977;SDS011;989;53.016;8.346;2022-11-15T05:58:18;19.50;;;10.43;;
1977;SDS011;989;53.016;8.346;2022-11-15T06:00:45;14.67;;;8.90;;
1977;SDS011;989;53.016;8.346;2022-11-15T06:03:11;22.73;;;9.80;;
1977;SDS011;989;53.016;8.346;2022-11-15T06:05:39;15.80;;;8.67;;
1977;SDS011;989;53.016;8.346;2022-11-15T06:08:05;18.30;;;8.13;;
1977;SDS011;989;53.016;8.346;2022-11-15T06:10:31;16.07;;;9.47;;
1977;SDS011;989;53.016;8.346;2022-11-15T06:12:58;18.97;;;9.17;;
1977;SDS011;989;53.016;8.346;2022-11-15T06:15:25;20.40;;;9.10;;
1977;SDS011;989;53.016;8.346;2022-11-15T06:17:51;15.93;;;7.83;;
1977;SDS011;989;53.016;8.346;2022-11-15T06:20:16;15.70;;;8.70;;
1977;SDS011;989;53.016;8.346;2022-11-15T06:22:42;18.17;;;9.67;;
1977;SDS011;989;53.016;8.346;2022-11-15T06:25:08;19.80;;;10.10;;
1977;SDS011;989;53.016;8.346;2022-11-15T06:27:34;18.50;;;8.60;;
1977;SDS011;989;53.016;8.346;2022-11-15T06:30:00;15.23;;;8.90;;
1977;SDS011;989;53.016;8.346;2022-11-15T06:32:26;16.57;;;10.10;;
1977;SDS011;989;53.016;8.346;2022-11-15T06:34:51;17.17;;;8.83;;
1977;SDS011;989;53.016;8.346;2022-11-15T06:37:17;19.00;;;9.33;;
1977;SDS011;989;53.016;8.346;2022-11-15T06:39:42;17.43;;;10.10;;
1977;SDS011;989;53.016;8.346;2022-11-15T06:42:08;27.53;;;10.10;;
1977;SDS011;989;53.016;8.346;2022-11-15T06:44:34;21.80;;;8.90;;
1977;SDS011;989;53.016;8.346;2022-11-15T06:47:00;17.53;;;10.77;;
1977;SDS011;989;53.016;8.346;2022-11-15T06:49:25;14.30;;;8.67;;
1977;SDS011;989;53.016;8.346;2022-11-15T06:51:51;25.70;;;9.70;;
1977;SDS011;989;53.016;8.346;2022-11-15T06:54:16;17.30;;;10.13;;
1977;SDS011;989;53.016;8.346;2022-11-15T06:56:42;13.50;;;8.97;;
1977;SDS011;989;53.016;8.346;2022-11-15T06:59:08;14.83;;;8.47;;
1977;SDS011;989;53.016;8.346;2022-11-15T07:01:33;17.60;;;9.40;;
1977;SDS011;989;53.016;8.346;2022-11-15T07:03:59;17.43;;;10.43;;
1977;SDS011;989;53.016;8.346;2022-11-15T07:06:25;17.30;;;9.13;;
1977;SDS011;989;53.016;8.346;2022-11-15T07:08:50;19.70;;;10.27;;
1977;SDS011;989;53.016;8.346;2022-11-15T07:11:16;16.43;;;10.07;;
1977;SDS011;989;53.016;8.346;2022-11-15T07:13:42;18.70;;;9.57;;
1977;SDS011;989;53.016;8.346;2022-11-15T07:16:08;19.77;;;10.33;;
1977;SDS011;989;53.016;8.346;2022-11-15T07:18:39;13.27;;;9.57;;
1977;SDS011;989;53.016;8.346;2022-11-15T07:21:05;17.77;;;9.33;;
1977;SDS011;989;53.016;8.346;2022-11-15T07:23:37;16.83;;;9.93;;
1977;SDS011;989;53.016;8.346;2022-11-15T07:26:04;18.40;;;9.50;;
1977;SDS011;989;53.016;8.346;2022-11-15T07:28:31;18.60;;;9.97;;
1977;SDS011;989;53.016;8.346;2022-11-15T07:30:57;16.73;;;9.93;;
1977;SDS011;989;53.016;8.346;2022-11-15T07:33:22;18.50;;;10.50;;
1977;SDS011;989;53.016;8.346;2022-11-15T07:35:48;21.60;;;9.30;;
1977;SDS011;989;53.016;8.346;2022-11-15T07:38:14;18.97;;;11.33;;
1977;SDS011;989;53.016;8.346;2022-11-15T07:40:40;16.77;;;10.70;;
1977;SDS011;989;53.016;8.346;2022-11-15T07:43:06;21.13;;;9.97;;
1977;SDS011;989;53.016;8.346;2022-11-15T07:45:33;22.33;;;11.33;;
1977;SDS011;989;53.016;8.346;2022-11-15T07:48:05;14.07;;;9.30;;
1977;SDS011;989;53.016;8.346;2022-11-15T07:50:31;17.60;;;9.97;;
1977;SDS011;989;53.016;8.346;2022-11-15T07:52:57;17.47;;;9.77;;
1977;SDS011;989;53.016;8.346;2022-11-15T07:55:24;17.03;;;10.97;;
1977;SDS011;989;53.016;8.346;2022-11-15T07:57:53;18.23;;;8.83;;
1977;SDS011;989;53.016;8.346;2022-11-15T08:00:36;34.00;;;10.23;;
1977;SDS011;989;53.016;8.346;2022-11-15T08:05:29;22.00;;;11.40;;
1977;SDS011;989;53.016;8.346;2022-11-15T08:07:56;15.77;;;10.07;;
1977;SDS011;989;53.016;8.346;2022-11-15T08:10:21;20.40;;;9.93;;
1977;SDS011;989;53.016;8.346;2022-11-15T08:12:55;25.17;;;9.47;;
1977;SDS011;989;53.016;8.346;2022-11-15T08:15:25;21.87;;;10.90;;
1977;SDS011;989;53.016;8.346;2022-11-15T08:17:58;16.53;;;10.70;;
1977;SDS011;989;53.016;8.346;2022-11-15T08:20:28;16.30;;;9.97;;
1977;SDS011;989;53.016;8.346;2022-11-15T08:22:55;18.30;;;9.60;;
1977;SDS011;989;53.016;8.346;2022-11-15T08:25:26;17.37;;;10.97;;
1977;SDS011;989;53.016;8.346;2022-11-15T08:27:53;22.27;;;10.40;;
1977;SDS011;989;53.016;8.346;2022-11-15T08:30:21;21.47;;;10.70;;
1977;SDS011;989;53.016;8.346;2022-11-15T08:32:48;17.50;;;10.30;;
1977;SDS011;989;53.016;8.346;2022-11-15T08:35:15;19.67;;;10.23;;
1977;SDS011;989;53.016;8.346;2022-11-15T08:37:41;17.97;;;10.70;;
1977;SDS011;989;53.016;8.346;2022-11-15T08:40:07;17.13;;;11.50;;
1977;SDS011;989;53.016;8.346;2022-11-15T08:42:34;19.80;;;10.50;;
1977;SDS011;989;53.016;8.346;2022-11-15T08:45:01;19.40;;;13.30;;
1977;SDS011;989;53.016;8.346;2022-11-15T08:47:27;20.37;;;11.20;;
1977;SDS011;989;53.016;8.346;2022-11-15T08:49:52;15.60;;;8.57;;
1977;SDS011;989;53.016;8.346;2022-11-15T08:52:18;17.27;;;10.10;;
1977;SDS011;989;53.016;8.346;2022-11-15T08:54:44;17.40;;;9.37;;
1977;SDS011;989;53.016;8.346;2022-11-15T08:57:10;16.77;;;10.73;;
1977;SDS011;989;53.016;8.346;2022-11-15T08:59:36;17.13;;;10.30;;
1977;SDS011;989;53.016;8.346;2022-11-15T09:02:02;17.27;;;10.90;;
1977;SDS011;989;53.016;8.346;2022-11-15T09:04:28;20.23;;;11.27;;
1977;SDS011;989;53.016;8.346;2022-11-15T09:06:53;22.13;;;10.90;;
1977;SDS011;989;53.016;8.346;2022-11-15T09:09:19;16.40;;;10.67;;
1977;SDS011;989;53.016;8.346;2022-11-15T09:11:45;12.77;;;9.47;;
1977;SDS011;989;53.016;8.346;2022-11-15T09:14:11;17.50;;;10.87;;
1977;SDS011;989;53.016;8.346;2022-11-15T09:16:37;17.30;;;9.67;;
1977;SDS011;989;53.016;8.346;2022-11-15T09:19:03;18.83;;;10.40;;
1977;SDS011;989;53.016;8.346;2022-11-15T09:21:29;15.23;;;8.83;;
1977;SDS011;989;53.016;8.346;2022-11-15T09:23:55;17.50;;;9.60;;
1977;SDS011;989;53.016;8.346;2022-11-15T09:26:22;18.67;;;9.87;;
1977;SDS011;989;53.016;8.346;2022-11-15T09:28:47;16.77;;;8.60;;
1977;SDS011;989;53.016;8.346;2022-11-15T09:31:13;19.93;;;10.07;;
1977;SDS011;989;53.016;8.346;2022-11-15T09:33:39;22.10;;;9.43;;
1977;SDS011;989;53.016;8.346;2022-11-15T09:36:06;15.10;;;9.77;;
1977;SDS011;989;53.016;8.346;2022-11-15T09:38:33;13.37;;;8.63;;
1977;SDS011;989;53.016;8.346;2022-11-15T09:47:15;14.30;;;7.93;;
1977;SDS011;989;53.016;8.346;2022-11-15T09:50:09;19.17;;;9.40;;
1977;SDS011;989;53.016;8.346;2022-11-15T09:52:41;14.43;;;8.43;;
1977;SDS011;989;53.016;8.346;2022-11-15T09:55:10;11.33;;;7.93;;
1977;SDS011;989;53.016;8.346;2022-11-15T10:00:51;15.27;;;6.90;;
1977;SDS011;989;53.016;8.346;2022-11-15T10:03:29;12.27;;;7.90;;
1977;SDS011;989;53.016;8.346;2022-11-15T10:06:04;14.93;;;7.10;;
1977;SDS011;989;53.016;8.346;2022-11-15T10:08:49;9.77;;;7.37;;
1977;SDS011;989;53.016;8.346;2022-11-15T10:11:34;14.00;;;8.63;;
1977;SDS011;989;53.016;8.346;2022-11-15T10:14:02;11.53;;;6.87;;
1977;SDS011;989;53.016;8.346;2022-11-15T10:16:44;12.67;;;7.27;;
1977;SDS011;989;53.016;8.346;2022-11-15T10:19:34;10.73;;;6.73;;
1977;SDS011;989;53.016;8.346;2022-11-15T10:27:53;11.20;;;6.63;;
1977;SDS011;989;53.016;8.346;2022-11-15T10:30:48;13.03;;;6.90;;
1977;SDS011;989;53.016;8.346;2022-11-15T10:33:34;15.90;;;7.40;;
1977;SDS011;989;53.016;8.346;2022-11-15T10:41:16;9.53;;;6.30;;
1977;SDS011;989;53.016;8.346;2022-11-15T10:46:32;11.37;;;6.10;;
1977;SDS011;989;53.016;8.346;2022-11-15T10:49:14;9.93;;;5.30;;
1977;SDS011;989;53.016;8.346;2022-11-15T10:51:58;12.03;;;6.13;;
1977;SDS011;989;53.016;8.346;2022-11-15T10:57:17;9.00;;;5.77;;
1977;SDS011;989;53.016;8.346;2022-11-15T10:59:49;10.60;;;5.80;;
1977;SDS011;989;53.016;8.346;2022-11-15T11:04:58;7.50;;;4.93;;
1977;SDS011;989;53.016;8.346;2022-11-15T11:07:27;18.00;;;5.50;;
1977;SDS011;989;53.016;8.346;2022-11-15T11:12:45;9.40;;;5.47;;
1977;SDS011;989;53.016;8.346;2022-11-15T11:15:11;8.30;;;5.23;;
1977;SDS011;989;53.016;8.346;2022-11-15T11:17:51;8.87;;;4.77;;
1977;SDS011;989;53.016;8.346;2022-11-15T11:20:26;10.80;;;5.73;;
1977;SDS011;989;53.016;8.346;2022-11-15T11:23:04;6.63;;;4.97;;
1977;SDS011;989;53.016;8.346;2022-11-15T11:26:18;10.90;;;5.40;;
1977;SDS011;989;53.016;8.346;2022-11-15T11:35:29;10.47;;;5.60;;
1977;SDS011;989;53.016;8.346;2022-11-15T11:41:13;5.30;;;3.93;;
1977;SDS011;989;53.016;8.346;2022-11-15T11:47:00;7.00;;;4.17;;
1977;SDS011;989;53.016;8.346;2022-11-15T11:49:43;6.67;;;4.13;;
1977;SDS011;989;53.016;8.346;2022-11-15T11:52:38;5.93;;;4.33;;
1977;SDS011;989;53.016;8.346;2022-11-15T11:55:19;7.43;;;4.03;;
1977;SDS011;989;53.016;8.346;2022-11-15T12:01:08;5.50;;;3.70;;
1977;SDS011;989;53.016;8.346;2022-11-15T12:03:54;5.93;;;3.93;;
1977;SDS011;989;53.016;8.346;2022-11-15T12:06:45;6.10;;;3.50;;
1977;SDS011;989;53.016;8.346;2022-11-15T12:14:55;8.10;;;3.60;;
1977;SDS011;989;53.016;8.346;2022-11-15T12:17:40;8.07;;;3.73;;
1977;SDS011;989;53.016;8.346;2022-11-15T12:20:17;5.73;;;3.50;;
1977;SDS011;989;53.016;8.346;2022-11-15T12:22:49;8.30;;;4.47;;
1977;SDS011;989;53.016;8.346;2022-11-15T12:25:35;5.60;;;3.20;;
1977;SDS011;989;53.016;8.346;2022-11-15T12:30:49;6.97;;;3.33;;
1977;SDS011;989;53.016;8.346;2022-11-15T12:33:33;4.70;;;3.50;;
1977;SDS011;989;53.016;8.346;2022-11-15T12:36:04;4.40;;;3.57;;
1977;SDS011;989;53.016;8.346;2022-11-15T12:59:49;4.67;;;2.47;;
1977;SDS011;989;53.016;8.346;2022-11-15T13:10:47;5.20;;;2.43;;
1977;SDS011;989;53.016;8.346;2022-11-15T13:13:00;5.53;;;2.60;;
1977;SDS011;989;53.016;8.346;2022-11-15T13:18:23;3.37;;;1.77;;
1977;SDS011;989;53.016;8.346;2022-11-15T13:21:01;4.23;;;1.87;;
1977;SDS011;989;53.016;8.346;2022-11-15T13:23:51;17.33;;;2.93;;
1977;SDS011;989;53.016;8.346;2022-11-15T13:26:19;2.33;;;1.60;;
1977;SDS011;989;53.016;8.346;2022-11-15T13:28:47;3.73;;;1.40;;
1977;SDS011;989;53.016;8.346;2022-11-15T13:31:27;3.77;;;1.50;;
1977;SDS011;989;53.016;8.346;2022-11-15T13:34:00;7.20;;;1.30;;
1977;SDS011;989;53.016;8.346;2022-11-15T13:36:39;2.57;;;1.60;;
1977;SDS011;989;53.016;8.346;2022-11-15T13:39:05;4.00;;;1.50;;
1977;SDS011;989;53.016;8.346;2022-11-15T13:41:51;3.83;;;1.70;;
1977;SDS011;989;53.016;8.346;2022-11-15T13:44:19;3.00;;;1.23;;
1977;SDS011;989;53.016;8.346;2022-11-15T13:47:01;9.23;;;1.30;;
1977;SDS011;989;53.016;8.346;2022-11-15T13:49:31;2.40;;;1.40;;
1977;SDS011;989;53.016;8.346;2022-11-15T13:51:59;3.43;;;1.40;;
1977;SDS011;989;53.016;8.346;2022-11-15T13:54:35;2.67;;;1.20;;
1977;SDS011;989;53.016;8.346;2022-11-15T13:57:12;3.13;;;1.50;;
1977;SDS011;989;53.016;8.346;2022-11-15T14:00:04;12.50;;;2.47;;
1977;SDS011;989;53.016;8.346;2022-11-15T14:02:55;7.47;;;2.27;;
1977;SDS011;989;53.016;8.346;2022-11-15T14:05:23;3.57;;;2.00;;
1977;SDS011;989;53.016;8.346;2022-11-15T14:08:23;3.53;;;1.50;;
1977;SDS011;989;53.016;8.346;2022-11-15T14:10:44;7.93;;;1.63;;
1977;SDS011;989;53.016;8.346;2022-11-15T14:13:31;2.97;;;1.70;;
1977;SDS011;989;53.016;8.346;2022-11-15T14:16:12;11.60;;;2.00;;
1977;SDS011;989;53.016;8.346;2022-11-15T14:18:50;3.57;;;1.63;;
1977;SDS011;989;53.016;8.346;2022-11-15T14:21:17;3.07;;;1.70;;
1977;SDS011;989;53.016;8.346;2022-11-15T14:23:44;5.43;;;1.67;;
1977;SDS011;989;53.016;8.346;2022-11-15T14:26:32;4.90;;;2.73;;
1977;SDS011;989;53.016;8.346;2022-11-15T14:31:51;7.70;;;3.23;;
1977;SDS011;989;53.016;8.346;2022-11-15T14:34:17;5.17;;;2.70;;
1977;SDS011;989;53.016;8.346;2022-11-15T14:36:43;3.10;;;1.57;;
1977;SDS011;989;53.016;8.346;2022-11-15T14:39:09;2.57;;;1.50;;
1977;SDS011;989;53.016;8.346;2022-11-15T14:41:35;3.87;;;1.60;;
1977;SDS011;989;53.016;8.346;2022-11-15T14:44:04;2.17;;;1.20;;
1977;SDS011;989;53.016;8.346;2022-11-15T14:46:31;7.23;;;2.00;;
1977;SDS011;989;53.016;8.346;2022-11-15T14:48:57;2.83;;;1.70;;
1977;SDS011;989;53.016;8.346;2022-11-15T14:51:23;2.77;;;1.47;;
1977;SDS011;989;53.016;8.346;2022-11-15T14:53:49;4.37;;;2.17;;
1977;SDS011;989;53.016;8.346;2022-11-15T14:56:14;4.90;;;2.23;;
1977;SDS011;989;53.016;8.346;2022-11-15T14:58:41;5.10;;;1.60;;
1977;SDS011;989;53.016;8.346;2022-11-15T15:01:25;3.23;;;1.27;;
1977;SDS011;989;53.016;8.346;2022-11-15T15:03:52;5.90;;;1.90;;
1977;SDS011;989;53.016;8.346;2022-11-15T15:06:21;3.10;;;1.47;;
1977;SDS011;989;53.016;8.346;2022-11-15T15:08:47;2.53;;;1.27;;
1977;SDS011;989;53.016;8.346;2022-11-15T15:11:20;2.23;;;1.40;;
1977;SDS011;989;53.016;8.346;2022-11-15T15:13:52;3.20;;;1.77;;
1977;SDS011;989;53.016;8.346;2022-11-15T15:16:21;3.87;;;1.50;;
1977;SDS011;989;53.016;8.346;2022-11-15T15:18:48;13.53;;;1.70;;
1977;SDS011;989;53.016;8.346;2022-11-15T15:21:22;2.73;;;1.30;;
1977;SDS011;989;53.016;8.346;2022-11-15T15:23:52;3.77;;;1.83;;
1977;SDS011;989;53.016;8.346;2022-11-15T15:26:19;3.83;;;1.63;;
1977;SDS011;989;53.016;8.346;2022-11-15T15:28:46;3.83;;;2.23;;
1977;SDS011;989;53.016;8.346;2022-11-15T15:31:13;7.33;;;1.90;;
1977;SDS011;989;53.016;8.346;2022-11-15T15:33:39;2.60;;;1.60;;
1977;SDS011;989;53.016;8.346;2022-11-15T15:36:08;14.80;;;2.33;;
1977;SDS011;989;53.016;8.346;2022-11-15T15:38:38;3.53;;;1.70;;
1977;SDS011;989;53.016;8.346;2022-11-15T15:41:10;5.97;;;2.23;;
1977;SDS011;989;53.016;8.346;2022-11-15T15:43:40;3.93;;;1.80;;
1977;SDS011;989;53.016;8.346;2022-11-15T15:46:16;4.20;;;1.90;;
1977;SDS011;989;53.016;8.346;2022-11-15T15:48:43;5.93;;;1.60;;
1977;SDS011;989;53.016;8.346;2022-11-15T15:51:10;3.63;;;2.20;;
1977;SDS011;989;53.016;8.346;2022-11-15T15:53:36;12.70;;;2.37;;
1977;SDS011;989;53.016;8.346;2022-11-15T15:56:02;8.23;;;1.87;;
1977;SDS011;989;53.016;8.346;2022-11-15T15:58:29;4.27;;;2.03;;
1977;SDS011;989;53.016;8.346;2022-11-15T16:00:56;5.07;;;2.10;;
1977;SDS011;989;53.016;8.346;2022-11-15T16:03:22;5.83;;;2.37;;
1977;SDS011;989;53.016;8.346;2022-11-15T16:05:49;3.43;;;1.80;;
1977;SDS011;989;53.016;8.346;2022-11-15T16:08:17;4.17;;;2.30;;
1977;SDS011;989;53.016;8.346;2022-11-15T16:10:51;3.83;;;1.83;;
1977;SDS011;989;53.016;8.346;2022-11-15T16:13:17;3.40;;;1.80;;
1977;SDS011;989;53.016;8.346;2022-11-15T16:15:43;6.00;;;2.00;;
1977;SDS011;989;53.016;8.346;2022-11-15T16:18:12;3.33;;;1.57;;
1977;SDS011;989;53.016;8.346;2022-11-15T16:20:42;9.63;;;2.10;;
1977;SDS011;989;53.016;8.346;2022-11-15T16:23:15;5.07;;;2.40;;
1977;SDS011;989;53.016;8.346;2022-11-15T16:25:48;3.60;;;2.13;;
1977;SDS011;989;53.016;8.346;2022-11-15T16:28:30;4.50;;;2.27;;
1977;SDS011;989;53.016;8.346;2022-11-15T16:31:05;11.70;;;2.30;;
1977;SDS011;989;53.016;8.346;2022-11-15T16:33:34;3.47;;;2.40;;
1977;SDS011;989;53.016;8.346;2022-11-15T16:36:01;4.87;;;2.10;;
1977;SDS011;989;53.016;8.346;2022-11-15T16:38:28;5.23;;;2.13;;
1977;SDS011;989;53.016;8.346;2022-11-15T16:40:54;3.20;;;2.10;;
1977;SDS011;989;53.016;8.346;2022-11-15T16:43:20;8.47;;;2.23;;
1977;SDS011;989;53.016;8.346;2022-11-15T16:45:45;3.70;;;2.40;;
1977;SDS011;989;53.016;8.346;2022-11-15T16:48:19;5.03;;;2.67;;
1977;SDS011;989;53.016;8.346;2022-11-15T16:50:49;9.70;;;3.00;;
1977;SDS011;989;53.016;8.346;2022-11-15T16:53:15;3.90;;;2.57;;
1977;SDS011;989;53.016;8.346;2022-11-15T16:55:41;6.10;;;2.67;;
1977;SDS011;989;53.016;8.346;2022-11-15T16:58:07;4.77;;;3.10;;
1977;SDS011;989;53.016;8.346;2022-11-15T17:00:34;6.07;;;3.27;;
1977;SDS011;989;53.016;8.346;2022-11-15T17:03:00;5.83;;;3.27;;
1977;SDS011;989;53.016;8.346;2022-11-15T17:05:27;5.60;;;3.00;;
1977;SDS011;989;53.016;8.346;2022-11-15T17:07:53;12.53;;;2.50;;
1977;SDS011;989;53.016;8.346;2022-11-15T17:10:23;7.93;;;2.90;;
1977;SDS011;989;53.016;8.346;2022-11-15T17:12:50;5.23;;;3.00;;
1977;SDS011;989;53.016;8.346;2022-11-15T17:15:17;4.60;;;2.80;;
1977;SDS011;989;53.016;8.346;2022-11-15T17:17:43;5.30;;;3.23;;
1977;SDS011;989;53.016;8.346;2022-11-15T17:20:12;6.13;;;3.37;;
1977;SDS011;989;53.016;8.346;2022-11-15T17:22:41;5.50;;;3.70;;
1977;SDS011;989;53.016;8.346;2022-11-15T17:25:07;9.40;;;4.07;;
1977;SDS011;989;53.016;8.346;2022-11-15T17:27:34;11.03;;;3.70;;
1977;SDS011;989;53.016;8.346;2022-11-15T17:29:59;6.80;;;3.60;;
1977;SDS011;989;53.016;8.346;2022-11-15T17:32:25;6.77;;;3.73;;
1977;SDS011;989;53.016;8.346;2022-11-15T17:34:51;6.60;;;3.80;;
1977;SDS011;989;53.016;8.346;2022-11-15T17:37:16;6.50;;;3.57;;
1977;SDS011;989;53.016;8.346;2022-11-15T17:39:42;7.93;;;4.37;;
1977;SDS011;989;53.016;8.346;2022-11-15T17:42:08;10.27;;;3.30;;